Tyne Valley, Canada
Current Conditions -  °F | °C
As of 8:00 PM on Wednesday 28 Jan 2015 (Local Time) from CYYG Reporting Station
Light Snow Light Snow  
Wind Chill:   Ceiling: 1200
Heat Index: 21°   Visibility: 5mi
Dew Point: 19°   Wind: 14mph
Humidity: 93%   Direction: 340°NNW
Pressure: 29.81"   Gusts: 24mph
Location:  46.57°N, 63.93°W
Report Text: CYYG 290000Z 34012G21KT 5SM -SN DRSN SCT007 OVC012 M06/M07 A2981 RMK SF4SC4 SLP098
Loading
Personal Weather Stations






























Interactive Weather Map New forecast layout! Learn more

10-Day Weather Forecast

Advertisements
Track Severe Weather on mobile